createdAt,value
2019-05-17T00:00:12.939Z,101357.39
2019-05-17T00:03:03.503Z,101350.37
2019-05-17T00:05:52.708Z,101353.52
2019-05-17T00:08:43.821Z,101352.36
2019-05-17T00:11:36.620Z,101349.67
2019-05-17T00:14:27.109Z,101342.65
2019-05-17T00:17:17.566Z,101342.28
2019-05-17T00:20:10.255Z,101334.86
2019-05-17T00:23:00.070Z,101332.67
2019-05-17T00:25:49.735Z,101328.73
2019-05-17T00:28:39.531Z,101325.25
2019-05-17T00:31:29.476Z,101323.54
2019-05-17T00:34:19.459Z,101323.60
2019-05-17T00:37:10.534Z,101320.55
2019-05-17T00:40:00.691Z,101314.38
2019-05-17T00:42:51.754Z,101310.44
2019-05-17T00:45:41.428Z,101312.77
2019-05-17T00:48:30.450Z,101309.78
2019-05-17T00:51:19.872Z,101310.23
2019-05-17T00:54:09.561Z,101307.64
2019-05-17T00:56:59.465Z,101302.36
2019-05-17T00:59:49.697Z,101297.92
2019-05-17T01:02:39.149Z,101296.22
2019-05-17T01:05:28.327Z,101292.19
2019-05-17T01:08:18.385Z,101285.66
2019-05-17T01:11:07.982Z,101298.22
2019-05-17T01:13:58.667Z,101291.59
2019-05-17T01:16:48.711Z,101292.53
2019-05-17T01:19:38.375Z,101286.80
2019-05-17T01:22:28.085Z,101277.05
2019-05-17T01:25:18.371Z,101282.92
2019-05-17T01:28:07.845Z,101279.44
2019-05-17T01:30:57.565Z,101271.56
2019-05-17T01:33:47.186Z,101268.48
2019-05-17T01:36:37.307Z,101268.08
2019-05-17T01:39:27.067Z,101268.27
2019-05-17T01:42:17.342Z,101258.01
2019-05-17T01:45:08.618Z,101257.16
2019-05-17T01:47:58.471Z,101257.31
2019-05-17T01:50:47.572Z,101250.23
2019-05-17T01:53:37.463Z,101248.98
2019-05-17T01:56:27.011Z,101239.73
2019-05-17T01:59:17.291Z,101238.11
2019-05-17T02:02:10.153Z,101241.36
2019-05-17T02:05:00.208Z,101236.66
2019-05-17T02:07:49.862Z,101229.25
2019-05-17T02:10:38.943Z,101234.81
2019-05-17T02:13:28.103Z,101231.42
2019-05-17T02:16:17.627Z,101230.36
2019-05-17T02:19:06.878Z,101231.89
2019-05-17T02:21:57.143Z,101234.77
2019-05-17T02:24:46.842Z,101231.02
2019-05-17T02:27:41.261Z,101236.54
2019-05-17T02:30:28.270Z,101228.66
2019-05-17T02:33:18.273Z,101228.00
2019-05-17T02:36:07.571Z,101217.89
2019-05-17T02:38:57.717Z,101213.47
2019-05-17T02:41:46.580Z,101205.98
2019-05-17T02:44:35.985Z,101205.23
2019-05-17T02:47:24.898Z,101207.13
2019-05-17T02:50:15.002Z,101208.95
2019-05-17T02:53:04.829Z,101217.56
2019-05-17T02:55:55.642Z,101217.65
2019-05-17T02:58:46.288Z,101217.34
2019-05-17T03:01:36.254Z,101221.38
2019-05-17T03:04:26.200Z,101213.89
2019-05-17T03:07:17.240Z,101213.50
2019-05-17T03:10:18.383Z,101209.11
2019-05-17T03:12:57.777Z,101202.94
2019-05-17T03:15:47.783Z,101205.63
2019-05-17T03:18:36.857Z,101195.47
2019-05-17T03:21:27.248Z,101195.06
2019-05-17T03:24:16.375Z,101196.59
2019-05-17T03:27:05.954Z,101197.54
2019-05-17T03:29:56.087Z,101194.09
2019-05-17T03:32:48.215Z,101199.46
2019-05-17T03:35:45.247Z,101200.00
2019-05-17T03:38:32.491Z,101192.14
2019-05-17T03:41:28.485Z,101189.05
2019-05-17T03:44:13.760Z,101181.09
2019-05-17T03:47:03.860Z,101181.58
2019-05-17T03:49:53.312Z,101187.49
2019-05-17T03:52:44.472Z,101179.17
2019-05-17T03:55:35.081Z,101188.56
2019-05-17T03:58:25.191Z,101179.71
2019-05-17T04:01:14.783Z,101180.20
2019-05-17T04:04:04.162Z,101170.90
2019-05-17T04:06:53.439Z,101172.69
2019-05-17T04:09:43.845Z,101179.89
2019-05-17T04:12:32.955Z,101188.43
2019-05-17T04:15:24.028Z,101183.06
2019-05-17T04:18:14.370Z,101182.66
2019-05-17T04:21:03.786Z,101177.39
2019-05-17T04:23:53.923Z,101176.14
2019-05-17T04:26:44.145Z,101176.14
2019-05-17T04:29:35.245Z,101183.39
2019-05-17T04:32:24.417Z,101179.85
2019-05-17T04:35:14.075Z,101174.63
2019-05-17T04:38:04.601Z,101180.09
2019-05-17T04:40:54.152Z,101181.98
2019-05-17T04:43:43.352Z,101177.95
2019-05-17T04:46:32.788Z,101177.09
2019-05-17T04:49:24.279Z,101180.72
2019-05-17T04:52:13.862Z,101175.36
2019-05-17T04:55:04.470Z,101173.16
2019-05-17T04:57:54.153Z,101177.55
2019-05-17T05:00:44.169Z,101176.61
2019-05-17T05:03:33.072Z,101169.50
2019-05-17T05:06:23.319Z,101169.91
2019-05-17T05:09:13.076Z,101167.53
2019-05-17T05:12:05.831Z,101164.45
2019-05-17T05:14:52.515Z,101168.87
2019-05-17T05:17:43.129Z,101159.88
2019-05-17T05:20:33.242Z,101168.32
2019-05-17T05:23:23.837Z,101173.55
2019-05-17T05:26:14.050Z,101169.52
2019-05-17T05:29:03.629Z,101169.80
2019-05-17T05:31:53.267Z,101168.36
2019-05-17T05:34:43.290Z,101165.13
2019-05-17T05:37:33.361Z,101161.02
2019-05-17T05:40:22.274Z,101172.06
2019-05-17T05:43:12.203Z,101168.34
2019-05-17T05:46:02.618Z,101165.56
2019-05-17T05:48:53.274Z,101161.35
2019-05-17T05:51:43.497Z,101163.00
2019-05-17T05:54:33.456Z,101165.50
2019-05-17T05:57:22.812Z,101162.63
2019-05-17T06:00:13.476Z,101167.82
2019-05-17T06:03:04.202Z,101164.19
2019-05-17T06:05:54.034Z,101164.80
2019-05-17T06:08:44.251Z,101162.38
2019-05-17T06:11:34.090Z,101164.42
2019-05-17T06:14:23.453Z,101165.19
2019-05-17T06:17:13.758Z,101157.53
2019-05-17T06:20:03.589Z,101151.58
2019-05-17T06:22:54.286Z,101147.00
2019-05-17T06:25:44.223Z,101138.75
2019-05-17T06:28:34.204Z,101145.87
2019-05-17T06:31:24.175Z,101139.38
2019-05-17T06:34:14.415Z,101139.70
2019-05-17T06:37:04.671Z,101144.03
2019-05-17T06:39:54.652Z,101140.37
2019-05-17T06:42:47.026Z,101140.47
2019-05-17T06:45:37.314Z,101144.61
2019-05-17T06:48:28.207Z,101148.44
2019-05-17T06:51:17.794Z,101145.39
2019-05-17T06:54:07.796Z,101144.08
2019-05-17T06:56:58.930Z,101142.54
2019-05-17T06:59:48.754Z,101148.86
2019-05-17T07:02:40.228Z,101144.92
2019-05-17T07:05:32.943Z,101138.78
2019-05-17T07:08:23.614Z,101147.50
2019-05-17T07:11:15.064Z,101144.16
2019-05-17T07:14:05.432Z,101141.34
2019-05-17T07:16:55.789Z,101133.86
2019-05-17T07:19:45.942Z,101130.76
2019-05-17T07:22:35.500Z,101134.77
2019-05-17T07:25:25.023Z,101133.91
2019-05-17T07:28:15.110Z,101124.56
2019-05-17T07:31:05.147Z,101124.14
2019-05-17T07:33:55.512Z,101112.39
2019-05-17T07:36:45.563Z,101118.48
2019-05-17T07:39:36.103Z,101118.81
2019-05-17T07:42:26.321Z,101116.84
2019-05-17T07:45:15.691Z,101113.67
2019-05-17T07:48:05.816Z,101104.58
2019-05-17T07:50:56.770Z,101100.88
2019-05-17T07:53:46.094Z,101103.98
2019-05-17T07:56:34.870Z,101102.22
2019-05-17T07:59:24.081Z,101109.13
2019-05-17T08:02:13.940Z,101104.86
2019-05-17T08:05:04.158Z,101104.14
2019-05-17T08:07:53.355Z,101102.11
2019-05-17T08:10:42.471Z,101100.64
2019-05-17T08:13:33.817Z,101085.13
2019-05-17T08:16:23.375Z,101083.33
2019-05-17T08:19:12.783Z,101077.97
2019-05-17T08:22:02.421Z,101067.11
2019-05-17T08:24:51.981Z,101056.52
2019-05-17T08:27:42.294Z,101057.13
2019-05-17T08:30:32.178Z,101058.34
2019-05-17T08:33:22.122Z,101056.48
2019-05-17T08:36:12.155Z,101058.03
2019-05-17T08:39:02.057Z,101057.70
2019-05-17T08:41:51.928Z,101060.19
2019-05-17T08:44:42.596Z,101044.84
2019-05-17T08:47:32.817Z,101044.38
2019-05-17T08:50:23.076Z,101043.55
2019-05-17T08:53:11.951Z,101049.47
2019-05-17T08:56:01.643Z,101048.13
2019-05-17T08:58:51.105Z,101034.10
2019-05-17T09:01:41.793Z,101039.04
2019-05-17T09:04:30.754Z,101032.75
2019-05-17T09:07:20.593Z,101033.84
2019-05-17T09:10:10.749Z,101024.50
2019-05-17T09:13:00.299Z,101021.21
2019-05-17T09:15:49.816Z,101016.41
2019-05-17T09:18:41.899Z,101015.05
2019-05-17T09:21:31.616Z,101005.34
2019-05-17T09:24:20.887Z,100999.94
2019-05-17T09:27:10.249Z,100996.49
2019-05-17T09:30:00.282Z,101004.58
2019-05-17T09:32:50.539Z,100996.44
2019-05-17T09:35:40.792Z,100984.02
2019-05-17T09:38:31.540Z,100988.30
2019-05-17T09:41:23.629Z,100972.03
2019-05-17T09:44:16.257Z,100973.23
2019-05-17T09:47:03.421Z,100970.50
2019-05-17T09:49:53.382Z,100970.72
2019-05-17T09:52:42.306Z,100977.73
2019-05-17T09:55:31.401Z,100975.77
2019-05-17T09:58:21.655Z,100970.59
2019-05-17T10:01:11.457Z,100968.73
2019-05-17T10:04:00.452Z,100974.52
2019-05-17T10:06:51.211Z,100969.81
2019-05-17T10:09:40.141Z,100970.05
2019-05-17T10:12:28.863Z,100972.63
2019-05-17T10:15:17.402Z,100967.92
2019-05-17T10:18:06.477Z,100961.52
2019-05-17T10:20:55.117Z,100969.65
2019-05-17T10:23:44.503Z,100975.06
2019-05-17T10:26:33.189Z,100971.27
2019-05-17T10:29:21.828Z,100962.64
2019-05-17T10:32:11.756Z,100966.23
2019-05-17T10:35:01.240Z,100958.23
2019-05-17T10:37:50.574Z,100959.08
2019-05-17T10:40:40.776Z,100956.00
2019-05-17T10:43:31.586Z,100961.80
2019-05-17T10:46:21.125Z,100957.22
2019-05-17T10:49:10.997Z,100958.70
2019-05-17T10:52:00.167Z,100950.95
2019-05-17T10:54:49.766Z,100951.94
2019-05-17T10:57:39.339Z,100943.34
2019-05-17T11:00:30.314Z,100947.00
2019-05-17T11:03:20.340Z,100939.45
2019-05-17T11:06:10.947Z,100931.28
2019-05-17T11:08:59.814Z,100933.11
2019-05-17T11:11:49.320Z,100936.50
2019-05-17T11:14:52.349Z,100935.10
2019-05-17T11:17:29.167Z,100928.89
2019-05-17T11:20:18.333Z,100929.86
2019-05-17T11:23:07.436Z,100932.81
2019-05-17T11:25:56.367Z,100926.73
2019-05-17T11:28:45.736Z,100926.88
2019-05-17T11:31:35.141Z,100926.41
2019-05-17T11:34:25.600Z,100927.38
2019-05-17T11:37:14.851Z,100920.10
2019-05-17T11:40:08.043Z,100924.03
2019-05-17T11:42:55.903Z,100921.07
2019-05-17T11:45:46.012Z,100917.72
2019-05-17T11:48:35.119Z,100916.45
2019-05-17T11:51:26.971Z,100918.23
2019-05-17T11:54:15.592Z,100912.77
2019-05-17T11:57:04.357Z,100908.78
2019-05-17T11:59:53.974Z,100906.02
2019-05-17T12:02:43.422Z,100907.32
2019-05-17T12:05:32.957Z,100903.20
2019-05-17T12:08:22.508Z,100905.99
2019-05-17T12:11:12.146Z,100911.87
2019-05-17T12:14:01.885Z,100903.16
2019-05-17T12:16:50.909Z,100904.60
2019-05-17T12:19:40.813Z,100909.69
2019-05-17T12:22:30.285Z,100907.27
2019-05-17T12:25:20.960Z,100904.23
2019-05-17T12:28:10.198Z,100900.66
2019-05-17T12:30:59.371Z,100901.54
2019-05-17T12:33:48.952Z,100902.53
2019-05-17T12:36:38.508Z,100889.72
2019-05-17T12:39:27.228Z,100897.17
2019-05-17T12:42:16.413Z,100898.92
2019-05-17T12:45:05.293Z,100896.50
2019-05-17T12:47:54.955Z,100899.43
2019-05-17T12:50:44.373Z,100896.78
2019-05-17T12:53:34.018Z,100895.27
2019-05-17T12:56:22.736Z,100904.13
2019-05-17T12:59:11.389Z,100897.33
2019-05-17T13:02:00.892Z,100898.54
2019-05-17T13:04:50.587Z,100892.26
2019-05-17T13:07:40.592Z,100899.05
2019-05-17T13:10:30.450Z,100904.85
2019-05-17T13:13:19.501Z,100899.42
2019-05-17T13:16:17.423Z,100893.47
2019-05-17T13:18:59.946Z,100899.97
2019-05-17T13:21:49.680Z,100896.25
2019-05-17T13:24:38.915Z,100906.46
2019-05-17T13:27:28.557Z,100903.81
2019-05-17T13:30:38.772Z,100900.45
2019-05-17T13:33:29.304Z,100900.45
2019-05-17T13:36:18.836Z,100900.45
2019-05-17T13:39:08.481Z,100905.74
2019-05-17T13:41:57.385Z,100906.38
2019-05-17T13:44:46.069Z,100911.12
2019-05-17T13:47:35.531Z,100907.48
2019-05-17T13:50:24.673Z,100902.62
2019-05-17T13:53:14.083Z,100907.96
2019-05-17T13:56:03.616Z,100906.17
2019-05-17T13:58:53.108Z,100902.60
2019-05-17T14:01:43.003Z,100901.58
2019-05-17T14:04:31.970Z,100906.53
2019-05-17T14:07:20.984Z,100906.17
2019-05-17T14:10:26.063Z,100903.75
2019-05-17T14:13:03.177Z,100898.09
2019-05-17T14:15:52.793Z,100905.54
2019-05-17T14:18:42.047Z,100901.47
2019-05-17T14:21:31.255Z,100904.11
2019-05-17T14:24:20.949Z,100897.76
2019-05-17T14:27:10.449Z,100895.95
2019-05-17T14:30:00.006Z,100894.81
2019-05-17T14:32:49.245Z,100900.67
2019-05-17T14:35:40.114Z,100899.83
2019-05-17T14:38:28.700Z,100898.69
2019-05-17T14:41:17.994Z,100891.12
2019-05-17T14:44:07.350Z,100889.31
2019-05-17T14:46:56.562Z,100882.11
2019-05-17T14:49:45.521Z,100886.72
2019-05-17T14:52:34.678Z,100883.92
2019-05-17T14:55:23.650Z,100890.98
2019-05-17T14:58:13.034Z,100887.71
2019-05-17T15:01:02.377Z,100886.13
2019-05-17T15:03:52.220Z,100883.05
2019-05-17T15:06:41.919Z,100884.91
2019-05-17T15:09:31.135Z,100879.12
2019-05-17T15:12:28.387Z,100878.42
2019-05-17T15:15:11.186Z,100880.25
2019-05-17T15:17:59.950Z,100878.56
2019-05-17T15:20:48.530Z,100873.61
2019-05-17T15:23:37.180Z,100874.59
2019-05-17T15:26:27.924Z,100866.60
2019-05-17T15:29:17.346Z,100869.31
2019-05-17T15:32:07.428Z,100861.83
2019-05-17T15:34:56.087Z,100863.55
2019-05-17T15:37:45.151Z,100859.12
2019-05-17T15:40:35.045Z,100844.48
2019-05-17T15:43:25.264Z,100843.13
2019-05-17T15:46:14.806Z,100853.89
2019-05-17T15:49:03.456Z,100856.52
2019-05-17T15:51:52.542Z,100851.74
2019-05-17T15:54:41.816Z,100863.72
2019-05-17T15:57:30.539Z,100853.30
2019-05-17T16:00:20.085Z,100856.25
2019-05-17T16:03:09.393Z,100848.41
2019-05-17T16:05:58.599Z,100847.30
2019-05-17T16:08:48.072Z,100849.77
2019-05-17T16:11:37.590Z,100845.00
2019-05-17T16:14:26.594Z,100841.92
2019-05-17T16:17:16.063Z,100851.55
2019-05-17T16:20:05.587Z,100843.69
2019-05-17T16:22:55.214Z,100842.95
2019-05-17T16:25:44.782Z,100840.16
2019-05-17T16:28:33.992Z,100839.59
2019-05-17T16:31:23.403Z,100838.27
2019-05-17T16:34:12.191Z,100836.18
2019-05-17T16:37:01.607Z,100836.12
2019-05-17T16:39:51.031Z,100835.38
2019-05-17T16:42:40.400Z,100836.63
2019-05-17T16:45:29.659Z,100827.43
2019-05-17T16:48:19.045Z,100834.48
2019-05-17T16:51:08.754Z,100829.95
2019-05-17T16:54:03.907Z,100823.45
2019-05-17T16:56:50.440Z,100823.02
2019-05-17T16:59:39.368Z,100820.91
2019-05-17T17:02:28.247Z,100824.88
2019-05-17T17:05:17.794Z,100822.44
2019-05-17T17:08:08.028Z,100819.63
2019-05-17T17:10:57.311Z,100823.59
2019-05-17T17:13:48.261Z,100822.14
2019-05-17T17:16:37.466Z,100820.34
2019-05-17T17:23:04.946Z,100819.02
2019-05-17T17:25:53.634Z,100823.11
2019-05-17T17:28:42.620Z,100822.05
2019-05-17T17:31:31.323Z,100824.66
2019-05-17T17:34:20.059Z,100816.19
2019-05-17T17:37:09.409Z,100814.35
2019-05-17T17:39:58.857Z,100814.41
2019-05-17T17:42:48.695Z,100820.69
2019-05-17T17:45:37.856Z,100824.25
2019-05-17T17:48:27.290Z,100822.45
2019-05-17T17:51:16.093Z,100818.88
2019-05-17T17:54:04.985Z,100821.13
2019-05-17T17:56:56.313Z,100814.73
2019-05-17T17:59:46.368Z,100818.80
2019-05-17T18:02:35.808Z,100814.66
2019-05-17T18:05:25.388Z,100816.36
2019-05-17T18:08:14.397Z,100815.02
2019-05-17T18:11:03.803Z,100822.03
2019-05-17T18:13:53.775Z,100814.78
2019-05-17T18:16:43.623Z,100818.72
2019-05-17T18:19:33.261Z,100821.30
2019-05-17T18:22:22.493Z,100822.66
2019-05-17T18:25:11.637Z,100821.17
2019-05-17T18:28:01.012Z,100827.30
2019-05-17T18:30:49.669Z,100819.58
2019-05-17T18:33:42.046Z,100822.66
2019-05-17T18:36:32.971Z,100817.51
2019-05-17T18:39:24.782Z,100820.46
2019-05-17T18:42:15.373Z,100820.80
2019-05-17T18:45:05.981Z,100821.55
2019-05-17T18:47:56.129Z,100820.08
2019-05-17T18:50:48.647Z,100819.95
2019-05-17T18:53:42.711Z,100821.17
2019-05-17T18:56:37.674Z,100828.17
2019-05-17T18:59:34.107Z,100825.33
2019-05-17T19:02:23.886Z,100828.78
2019-05-17T19:05:15.551Z,100830.47
2019-05-17T19:08:10.036Z,100825.44
2019-05-17T19:11:00.028Z,100828.38
2019-05-17T19:13:50.667Z,100830.09
2019-05-17T19:16:42.972Z,100829.46
2019-05-17T19:19:36.120Z,100831.55
2019-05-17T19:22:27.548Z,100832.39
2019-05-17T19:25:17.446Z,100832.59
2019-05-17T19:28:07.497Z,100838.36
2019-05-17T19:30:59.837Z,100841.38
2019-05-17T19:33:51.265Z,100837.20
2019-05-17T19:36:41.782Z,100841.48
2019-05-17T19:39:34.578Z,100839.14
2019-05-17T19:42:32.823Z,100839.84
2019-05-17T19:45:22.758Z,100833.96
2019-05-17T19:48:15.485Z,100843.84
2019-05-17T19:51:14.359Z,100853.05
2019-05-17T19:54:09.378Z,100850.33
2019-05-17T19:56:59.998Z,100856.03
2019-05-17T19:59:52.592Z,100854.19
2019-05-17T20:02:42.547Z,100855.89
2019-05-17T20:05:34.057Z,100846.30
2019-05-17T20:08:24.884Z,100852.89
2019-05-17T20:11:14.725Z,100853.59
2019-05-17T20:14:06.845Z,100850.74
2019-05-17T20:16:58.694Z,100845.97
2019-05-17T20:19:52.193Z,100851.20
2019-05-17T20:22:43.189Z,100846.63
2019-05-17T20:25:35.166Z,100848.70
2019-05-17T20:28:29.184Z,100847.20
2019-05-17T20:31:20.574Z,100842.51
2019-05-17T20:34:12.872Z,100848.62
2019-05-17T20:37:06.815Z,100848.34
2019-05-17T20:39:57.940Z,100840.97
2019-05-17T20:42:48.518Z,100843.50
2019-05-17T20:45:40.663Z,100839.69
2019-05-17T20:48:30.559Z,100839.41
2019-05-17T20:51:20.809Z,100837.41
2019-05-17T20:54:10.874Z,100833.21
2019-05-17T20:57:00.711Z,100836.52
2019-05-17T20:59:55.080Z,100833.17
2019-05-17T21:02:46.362Z,100832.43
2019-05-17T21:05:37.851Z,100835.81
2019-05-17T21:08:27.988Z,100829.30
2019-05-17T21:11:19.467Z,100830.76
2019-05-17T21:14:10.497Z,100830.13
2019-05-17T21:20:16.457Z,100829.09
2019-05-17T21:23:06.327Z,100823.55
2019-05-17T21:25:59.196Z,100823.66
2019-05-17T21:28:48.811Z,100818.61
2019-05-17T21:31:38.696Z,100820.06
2019-05-17T21:34:30.278Z,100820.67
2019-05-17T21:37:20.840Z,100815.86
2019-05-17T21:40:13.118Z,100814.73
2019-05-17T21:43:05.357Z,100823.41
2019-05-17T21:46:04.111Z,100819.56
2019-05-17T21:48:53.130Z,100822.86
2019-05-17T21:51:45.314Z,100812.67
2019-05-17T21:54:35.824Z,100812.43
2019-05-17T21:57:30.195Z,100816.93
2019-05-17T22:01:22.108Z,100818.88
2019-05-17T22:04:12.815Z,100821.78
2019-05-17T22:07:06.203Z,100817.47
2019-05-17T22:09:56.700Z,100818.54
2019-05-17T22:12:48.028Z,100824.14
2019-05-17T22:15:41.478Z,100822.02
2019-05-17T22:18:31.694Z,100826.66
2019-05-17T22:21:21.026Z,100826.27
2019-05-17T22:24:09.878Z,100821.11
2019-05-17T22:26:59.201Z,100821.71
2019-05-17T22:29:50.882Z,100821.81
2019-05-17T22:32:41.730Z,100827.77
2019-05-17T22:35:31.004Z,100830.56
2019-05-17T22:38:20.694Z,100831.17
2019-05-17T22:41:11.061Z,100821.86
2019-05-17T22:44:00.295Z,100820.13
2019-05-17T22:46:49.807Z,100822.05
2019-05-17T22:49:42.085Z,100810.05
2019-05-17T22:52:36.400Z,100814.19
2019-05-17T22:55:26.700Z,100810.66
2019-05-17T22:58:16.479Z,100813.06
2019-05-17T23:01:08.886Z,100809.10
2019-05-17T23:03:59.301Z,100810.16
2019-05-17T23:06:49.254Z,100811.61
2019-05-17T23:09:42.617Z,100813.06
2019-05-17T23:12:32.236Z,100807.41
2019-05-17T23:15:22.212Z,100813.73
2019-05-17T23:18:13.550Z,100804.93
2019-05-17T23:21:03.122Z,100811.66
2019-05-17T23:23:52.600Z,100799.27
2019-05-17T23:26:41.670Z,100802.06
2019-05-17T23:29:30.898Z,100803.02
2019-05-17T23:32:20.506Z,100805.81
2019-05-17T23:35:09.719Z,100796.52
2019-05-17T23:37:58.796Z,100797.01
2019-05-17T23:40:47.395Z,100793.09
2019-05-17T23:43:37.035Z,100794.05
2019-05-17T23:46:25.833Z,100793.41
2019-05-17T23:49:14.471Z,100795.20
2019-05-17T23:52:04.240Z,100790.44
2019-05-17T23:54:53.109Z,100791.78
2019-05-17T23:57:42.448Z,100792.34
